createdAt,value
2023-01-08T00:01:20.833Z,83.70
2023-01-08T00:03:51.174Z,81.57
2023-01-08T00:06:23.321Z,86.10
2023-01-08T00:08:55.788Z,89.60
2023-01-08T00:11:26.121Z,86.70
2023-01-08T00:13:56.654Z,83.70
2023-01-08T00:16:26.850Z,84.90
2023-01-08T00:18:57.603Z,82.07
2023-01-08T00:21:27.823Z,84.23
2023-01-08T00:24:00.104Z,86.37
2023-01-08T00:26:31.239Z,88.23
2023-01-08T00:29:01.972Z,85.23
2023-01-08T00:31:32.310Z,83.33
2023-01-08T00:34:02.622Z,84.87
2023-01-08T00:36:33.464Z,89.40
2023-01-08T00:39:05.634Z,84.43
2023-01-08T00:41:36.053Z,80.33
2023-01-08T00:44:06.585Z,77.77
2023-01-08T00:46:36.777Z,83.17
2023-01-08T00:49:07.225Z,81.00
2023-01-08T00:51:37.540Z,77.10
2023-01-08T00:54:09.523Z,77.80
2023-01-08T00:56:39.726Z,78.20
2023-01-08T00:59:09.959Z,77.13
2023-01-08T01:01:40.090Z,75.03
2023-01-08T01:04:10.613Z,75.07
2023-01-08T01:06:40.713Z,74.13
2023-01-08T01:09:12.479Z,77.47
2023-01-08T01:11:42.705Z,77.90
2023-01-08T01:14:13.125Z,77.07
2023-01-08T01:16:44.344Z,78.07
2023-01-08T01:19:14.591Z,83.00
2023-01-08T01:21:44.820Z,79.73
2023-01-08T01:24:16.870Z,83.33
2023-01-08T01:26:47.098Z,80.87
2023-01-08T01:29:17.424Z,74.30
2023-01-08T01:31:47.543Z,74.07
2023-01-08T01:34:18.076Z,82.77
2023-01-08T01:36:48.294Z,74.33
2023-01-08T01:39:20.557Z,87.57
2023-01-08T01:41:51.291Z,79.83
2023-01-08T01:44:40.450Z,73.53
2023-01-08T01:47:18.349Z,76.30
2023-01-08T01:49:56.169Z,75.03
2023-01-08T01:52:28.431Z,74.97
2023-01-08T01:55:02.024Z,77.70
2023-01-08T01:57:33.291Z,73.13
2023-01-08T02:00:06.262Z,70.43
2023-01-08T02:02:41.598Z,63.03
2023-01-08T02:05:13.144Z,69.07
2023-01-08T02:07:51.573Z,64.80
2023-01-08T02:10:29.160Z,66.33
2023-01-08T02:13:06.962Z,62.80
2023-01-08T02:15:45.681Z,64.80
2023-01-08T02:18:21.131Z,64.87
2023-01-08T02:20:57.506Z,60.27
2023-01-08T02:23:39.068Z,59.53
2023-01-08T02:26:15.859Z,70.03
2023-01-08T02:28:50.392Z,62.33
2023-01-08T02:31:22.542Z,63.07
2023-01-08T02:33:52.664Z,60.20
2023-01-08T02:36:36.797Z,50.57
2023-01-08T02:39:17.894Z,55.43
2023-01-08T02:41:59.345Z,43.87
2023-01-08T02:44:39.972Z,39.43
2023-01-08T02:47:18.036Z,33.50
2023-01-08T02:49:51.223Z,33.83
2023-01-08T02:52:24.108Z,30.87
2023-01-08T02:54:55.254Z,27.93
2023-01-08T02:57:27.828Z,27.27
2023-01-08T02:59:59.691Z,28.80
2023-01-08T03:02:34.720Z,25.67
2023-01-08T03:05:11.600Z,27.23
2023-01-08T03:07:42.032Z,24.57
2023-01-08T03:10:13.378Z,26.80
2023-01-08T03:12:54.151Z,27.33
2023-01-08T03:15:29.254Z,25.57
2023-01-08T03:18:04.948Z,22.33
2023-01-08T03:20:39.244Z,24.67
2023-01-08T03:23:12.446Z,23.30
2023-01-08T03:25:45.836Z,23.97
2023-01-08T03:28:22.511Z,23.80
2023-01-08T03:30:55.017Z,24.37
2023-01-08T03:33:27.759Z,24.27
2023-01-08T03:36:01.169Z,23.77
2023-01-08T03:38:35.779Z,23.07
2023-01-08T03:41:18.823Z,24.63
2023-01-08T03:43:55.072Z,22.60
2023-01-08T03:46:31.151Z,23.20
2023-01-08T03:49:03.092Z,23.37
2023-01-08T03:51:42.541Z,35.40
2023-01-08T03:54:16.236Z,29.20
2023-01-08T03:56:47.067Z,31.50
2023-01-08T03:59:19.842Z,34.23
2023-01-08T04:01:50.185Z,39.67
2023-01-08T04:04:20.642Z,37.43
2023-01-08T04:06:50.776Z,38.13
2023-01-08T04:09:21.280Z,41.77
2023-01-08T04:11:53.017Z,39.13
2023-01-08T04:14:25.062Z,40.07
2023-01-08T04:16:56.526Z,41.90
2023-01-08T04:19:26.746Z,40.90
2023-01-08T04:21:56.867Z,43.23
2023-01-08T04:24:27.388Z,47.07
2023-01-08T04:26:57.920Z,46.53
2023-01-08T04:29:29.776Z,48.37
2023-01-08T04:32:00.001Z,49.57
2023-01-08T04:34:30.838Z,47.60
2023-01-08T04:37:01.460Z,48.90
2023-01-08T04:39:31.804Z,50.17
2023-01-08T04:42:01.812Z,46.03
2023-01-08T04:44:33.861Z,49.43
2023-01-08T04:47:04.095Z,44.40
2023-01-08T04:49:34.418Z,49.03
2023-01-08T04:52:04.957Z,45.57
2023-01-08T04:54:35.576Z,43.77
2023-01-08T04:57:06.102Z,47.27
2023-01-08T04:59:38.069Z,43.57
2023-01-08T05:02:08.600Z,47.53
2023-01-08T05:04:39.027Z,45.07
2023-01-08T05:07:09.236Z,46.73
2023-01-08T05:09:39.587Z,50.07
2023-01-08T05:12:09.886Z,46.57
2023-01-08T05:14:41.650Z,46.23
2023-01-08T05:17:11.860Z,47.37
2023-01-08T05:19:41.886Z,45.53
2023-01-08T05:22:12.416Z,47.77
2023-01-08T05:24:42.625Z,51.63
2023-01-08T05:27:12.666Z,50.53
2023-01-08T05:29:44.506Z,44.83
2023-01-08T05:32:18.819Z,44.03
2023-01-08T05:34:49.249Z,48.17
2023-01-08T05:37:19.547Z,46.83
2023-01-08T05:39:49.897Z,44.53
2023-01-08T05:42:20.119Z,40.63
2023-01-08T05:44:51.976Z,38.97
2023-01-08T05:47:22.425Z,39.23
2023-01-08T05:49:52.529Z,39.80
2023-01-08T05:52:22.650Z,40.53
2023-01-08T05:54:53.176Z,39.63
2023-01-08T05:57:29.136Z,39.53
2023-01-08T06:00:02.011Z,40.53
2023-01-08T06:02:41.416Z,39.03
2023-01-08T06:05:11.881Z,39.43
2023-01-08T06:07:42.208Z,39.77
2023-01-08T06:10:12.620Z,37.13
2023-01-08T06:12:49.419Z,36.73
2023-01-08T06:15:21.680Z,37.43
2023-01-08T06:17:51.907Z,36.57
2023-01-08T06:20:22.119Z,36.13
2023-01-08T06:22:52.230Z,34.30
2023-01-08T06:25:22.259Z,38.60
2023-01-08T06:27:54.014Z,37.83
2023-01-08T06:30:25.979Z,38.70
2023-01-08T06:32:58.760Z,38.03
2023-01-08T06:35:29.389Z,36.60
2023-01-08T06:37:59.596Z,35.37
2023-01-08T06:40:29.716Z,36.20
2023-01-08T06:43:04.140Z,39.77
2023-01-08T06:45:36.129Z,36.87
2023-01-08T06:48:07.757Z,38.93
2023-01-08T06:50:38.121Z,40.07
2023-01-08T06:53:08.100Z,36.07
2023-01-08T06:55:39.758Z,39.47
2023-01-08T06:58:09.978Z,35.63
2023-01-08T07:00:42.240Z,36.93
2023-01-08T07:03:12.404Z,37.37
2023-01-08T07:05:43.012Z,38.77
2023-01-08T07:08:15.877Z,39.83
2023-01-08T07:10:46.626Z,42.83
2023-01-08T07:13:17.235Z,44.57
2023-01-08T07:15:49.162Z,47.80
2023-01-08T07:18:19.420Z,52.43
2023-01-08T07:20:51.070Z,51.70
2023-01-08T07:23:21.196Z,56.20
2023-01-08T07:25:51.047Z,56.37
2023-01-08T07:28:21.534Z,57.37
2023-01-08T07:30:53.250Z,56.10
2023-01-08T07:33:23.328Z,61.93
2023-01-08T07:35:55.280Z,64.90
2023-01-08T07:38:26.019Z,63.63
2023-01-08T07:40:56.228Z,65.00
2023-01-08T07:43:27.279Z,71.10
2023-01-08T07:45:59.749Z,66.70
2023-01-08T07:48:30.389Z,67.10
2023-01-08T07:51:06.345Z,68.67
2023-01-08T07:53:36.956Z,64.23
2023-01-08T07:56:09.845Z,91.93
2023-01-08T07:58:40.379Z,73.47
2023-01-08T08:01:13.410Z,74.37
2023-01-08T08:03:47.278Z,98.67
2023-01-08T08:06:17.598Z,79.10
2023-01-08T08:08:48.017Z,73.80
2023-01-08T08:11:18.355Z,87.00
2023-01-08T08:13:50.146Z,88.57
2023-01-08T08:16:23.348Z,88.37
2023-01-08T08:18:53.559Z,83.43
2023-01-08T08:21:24.078Z,85.87
2023-01-08T08:23:54.478Z,100.73
2023-01-08T08:26:24.898Z,77.87
2023-01-08T08:28:54.823Z,75.63
2023-01-08T08:31:27.106Z,79.07
2023-01-08T08:33:58.127Z,76.70
2023-01-08T08:36:31.207Z,76.60
2023-01-08T08:39:01.335Z,76.90
2023-01-08T08:41:31.866Z,77.87
2023-01-08T08:44:03.821Z,73.33
2023-01-08T08:46:35.689Z,74.07
2023-01-08T08:49:06.112Z,75.87
2023-01-08T08:51:36.626Z,78.37
2023-01-08T08:54:07.167Z,76.00
2023-01-08T08:56:37.476Z,78.10
2023-01-08T08:59:13.667Z,80.43
2023-01-08T09:01:46.123Z,79.27
2023-01-08T09:04:16.337Z,78.50
2023-01-08T09:06:47.041Z,77.13
2023-01-08T09:09:19.858Z,82.70
2023-01-08T09:11:50.390Z,78.40
2023-01-08T09:14:21.123Z,82.33
2023-01-08T09:16:53.293Z,78.57
2023-01-08T09:19:23.706Z,84.63
2023-01-08T09:21:53.821Z,75.60
2023-01-08T09:24:26.812Z,76.43
2023-01-08T09:26:57.010Z,76.37
2023-01-08T09:29:27.497Z,77.30
2023-01-08T09:32:00.954Z,77.60
2023-01-08T09:34:33.348Z,79.20
2023-01-08T09:37:03.564Z,75.77
2023-01-08T09:39:34.081Z,74.87
2023-01-08T09:42:07.164Z,78.77
2023-01-08T09:44:40.467Z,76.97
2023-01-08T09:47:24.411Z,78.90
2023-01-08T09:49:57.794Z,78.57
2023-01-08T09:52:28.745Z,84.60
2023-01-08T09:54:59.164Z,78.60
2023-01-08T09:57:30.403Z,80.73
2023-01-08T10:00:01.664Z,77.17
2023-01-08T10:02:36.209Z,81.77
2023-01-08T10:05:15.118Z,86.70
2023-01-08T10:07:45.439Z,81.60
2023-01-08T10:10:22.215Z,86.60
2023-01-08T10:12:53.064Z,76.70
2023-01-08T10:15:24.834Z,79.20
2023-01-08T10:18:02.916Z,79.23
2023-01-08T10:20:34.347Z,80.17
2023-01-08T10:23:13.585Z,70.67
2023-01-08T10:25:59.785Z,76.17
2023-01-08T10:28:31.750Z,78.73
2023-01-08T10:31:10.799Z,76.80
2023-01-08T10:33:45.396Z,72.73
2023-01-08T10:36:19.424Z,68.97
2023-01-08T10:38:54.643Z,68.77
2023-01-08T10:41:25.066Z,65.77
2023-01-08T10:44:00.931Z,63.73
2023-01-08T10:46:36.503Z,66.17
2023-01-08T10:49:10.076Z,64.17
2023-01-08T10:51:51.767Z,68.93
2023-01-08T10:54:43.168Z,64.60
2023-01-08T10:57:23.952Z,67.83
2023-01-08T10:59:54.482Z,70.20
2023-01-08T11:02:38.277Z,70.00
2023-01-08T11:05:12.403Z,72.10
2023-01-08T11:07:43.166Z,68.90
2023-01-08T11:10:25.872Z,69.87
2023-01-08T11:13:02.064Z,74.87
2023-01-08T11:15:39.336Z,78.53
2023-01-08T11:18:24.245Z,72.30
2023-01-08T11:21:08.340Z,74.83
2023-01-08T11:23:38.877Z,72.50
2023-01-08T11:26:13.833Z,69.70
2023-01-08T11:28:54.877Z,73.00
2023-01-08T11:31:43.543Z,75.17
2023-01-08T11:34:46.215Z,77.40
2023-01-08T11:37:24.524Z,80.90
2023-01-08T11:39:55.561Z,83.60
2023-01-08T11:42:51.285Z,82.43
2023-01-08T11:45:32.412Z,86.33
2023-01-08T11:48:23.691Z,89.77
2023-01-08T11:51:10.385Z,89.17
2023-01-08T11:53:49.104Z,87.73
2023-01-08T11:56:36.965Z,93.90
2023-01-08T11:59:18.845Z,90.03
2023-01-08T12:01:59.531Z,88.07
2023-01-08T12:05:02.381Z,90.73
2023-01-08T12:07:36.798Z,83.93
2023-01-08T12:10:17.268Z,94.20
2023-01-08T12:13:00.295Z,105.77
2023-01-08T12:15:49.559Z,98.53
2023-01-08T12:18:37.180Z,97.73
2023-01-08T12:21:16.538Z,99.27
2023-01-08T12:24:02.251Z,93.13
2023-01-08T12:26:41.546Z,102.27
2023-01-08T12:29:45.344Z,96.20
2023-01-08T12:32:30.127Z,98.67
2023-01-08T12:35:05.649Z,106.40
2023-01-08T12:37:42.119Z,98.73
2023-01-08T12:40:19.106Z,99.80
2023-01-08T12:43:00.504Z,94.90
2023-01-08T12:45:33.211Z,98.10
2023-01-08T12:48:07.578Z,94.00
2023-01-08T12:50:46.422Z,98.63
2023-01-08T12:53:23.381Z,102.60
2023-01-08T12:56:05.286Z,106.20
2023-01-08T12:58:50.889Z,100.20
2023-01-08T13:01:39.716Z,102.20
2023-01-08T13:04:13.257Z,103.80
2023-01-08T13:06:53.472Z,95.53
2023-01-08T13:09:28.213Z,98.60
2023-01-08T13:12:00.575Z,107.80
2023-01-08T13:14:45.237Z,108.63
2023-01-08T13:17:21.948Z,104.57
2023-01-08T13:19:57.062Z,104.50
2023-01-08T13:22:30.136Z,100.07
2023-01-08T13:25:29.246Z,99.53
2023-01-08T13:28:01.512Z,95.90
2023-01-08T13:30:43.057Z,100.07
2023-01-08T13:33:29.807Z,98.43
2023-01-08T13:36:21.416Z,104.53
2023-01-08T13:39:22.789Z,96.80
2023-01-08T13:42:30.365Z,99.93
2023-01-08T13:45:02.957Z,106.50
2023-01-08T13:47:37.673Z,105.60
2023-01-08T13:50:21.417Z,104.67
2023-01-08T13:52:58.402Z,106.47
2023-01-08T13:55:33.536Z,106.70
2023-01-08T13:58:06.723Z,109.87
2023-01-08T14:00:46.987Z,110.83
2023-01-08T14:03:37.896Z,106.63
2023-01-08T14:06:10.770Z,113.00
2023-01-08T14:08:51.936Z,117.93
2023-01-08T14:11:30.122Z,105.33
2023-01-08T14:14:00.786Z,108.77
2023-01-08T14:16:34.000Z,109.70
2023-01-08T14:19:08.097Z,101.90
2023-01-08T14:21:38.734Z,100.50
2023-01-08T14:24:09.866Z,95.20
2023-01-08T14:26:40.812Z,92.17
2023-01-08T14:29:17.670Z,98.70
2023-01-08T14:31:50.675Z,109.00
2023-01-08T14:34:26.009Z,110.80
2023-01-08T14:36:58.185Z,109.30
2023-01-08T14:39:34.941Z,108.80
2023-01-08T14:42:28.303Z,109.97
2023-01-08T14:45:00.984Z,111.33
2023-01-08T14:47:36.237Z,109.33
2023-01-08T14:50:09.828Z,111.57
2023-01-08T14:52:43.023Z,111.80
2023-01-08T14:55:20.404Z,111.73
2023-01-08T14:57:53.807Z,109.43
2023-01-08T15:00:27.515Z,111.43
2023-01-08T15:02:58.701Z,116.97
2023-01-08T15:05:32.665Z,115.57
2023-01-08T15:08:06.759Z,113.97
2023-01-08T15:10:42.939Z,127.60
2023-01-08T15:13:25.926Z,119.20
2023-01-08T15:15:59.358Z,124.63
2023-01-08T15:18:29.943Z,115.23
2023-01-08T15:21:01.646Z,115.97
2023-01-08T15:23:40.452Z,118.07
2023-01-08T15:26:16.217Z,113.93
2023-01-08T15:28:56.267Z,114.70
2023-01-08T15:31:31.956Z,110.90
2023-01-08T15:34:03.775Z,109.30
2023-01-08T15:36:36.665Z,118.43
2023-01-08T15:39:07.399Z,112.93
2023-01-08T15:41:56.376Z,109.00
2023-01-08T15:44:27.897Z,106.40
2023-01-08T15:47:00.473Z,108.87
2023-01-08T15:49:30.804Z,108.23
2023-01-08T15:52:03.684Z,111.07
2023-01-08T15:54:34.833Z,106.20
2023-01-08T15:57:05.768Z,108.70
2023-01-08T15:59:38.378Z,105.13
2023-01-08T16:02:09.471Z,107.97
2023-01-08T16:04:39.713Z,111.83
2023-01-08T16:07:11.981Z,99.33
2023-01-08T16:09:42.194Z,100.50
2023-01-08T16:12:12.723Z,95.67
2023-01-08T16:14:44.274Z,98.03
2023-01-08T16:17:14.110Z,90.80
2023-01-08T16:19:44.734Z,94.27
2023-01-08T16:22:16.987Z,87.77
2023-01-08T16:24:47.348Z,90.23
2023-01-08T16:27:17.745Z,88.63
2023-01-08T16:29:48.268Z,82.23
2023-01-08T16:32:18.926Z,87.33
2023-01-08T16:34:49.637Z,81.43
2023-01-08T16:37:21.602Z,83.17
2023-01-08T16:39:52.134Z,86.30
2023-01-08T16:42:21.954Z,79.60
2023-01-08T16:44:52.154Z,82.70
2023-01-08T16:47:22.475Z,76.37
2023-01-08T16:49:53.258Z,81.27
2023-01-08T16:52:27.427Z,79.87
2023-01-08T16:54:58.182Z,74.33
2023-01-08T16:57:28.897Z,71.80
2023-01-08T16:59:59.537Z,77.40
2023-01-08T17:02:31.289Z,75.43
2023-01-08T17:05:01.822Z,77.20
2023-01-08T17:07:39.531Z,75.77
2023-01-08T17:10:15.051Z,77.63
2023-01-08T17:12:45.794Z,72.57
2023-01-08T17:15:16.633Z,74.67
2023-01-08T17:17:47.372Z,73.60
2023-01-08T17:20:21.466Z,70.27
2023-01-08T17:23:02.144Z,70.33
2023-01-08T17:25:33.603Z,80.17
2023-01-08T17:28:04.117Z,80.00
2023-01-08T17:30:34.652Z,74.43
2023-01-08T17:33:05.390Z,74.90
2023-01-08T17:35:36.123Z,75.93
2023-01-08T17:38:08.904Z,67.27
2023-01-08T17:40:40.236Z,73.27
2023-01-08T17:43:10.883Z,72.70
2023-01-08T17:45:42.660Z,79.67
2023-01-08T17:48:13.462Z,78.70
2023-01-08T17:50:44.107Z,76.30
2023-01-08T17:53:17.957Z,68.17
2023-01-08T17:55:48.644Z,65.37
2023-01-08T17:58:19.466Z,60.63
2023-01-08T18:00:49.764Z,64.37
2023-01-08T18:03:20.626Z,59.10
2023-01-08T18:05:51.362Z,56.23
2023-01-08T18:08:24.911Z,56.57
2023-01-08T18:10:55.702Z,60.17
2023-01-08T18:13:27.043Z,59.67
2023-01-08T18:15:57.687Z,52.60
2023-01-08T18:18:28.223Z,53.53
2023-01-08T18:20:58.839Z,48.10
2023-01-08T18:23:31.532Z,52.20
2023-01-08T18:26:07.273Z,48.83
2023-01-08T18:28:38.731Z,47.07
2023-01-08T18:31:11.110Z,47.70
2023-01-08T18:33:42.246Z,51.23
2023-01-08T18:36:14.916Z,43.80
2023-01-08T18:38:52.304Z,46.80
2023-01-08T18:41:40.643Z,47.80
2023-01-08T18:44:11.896Z,43.97
2023-01-08T18:46:43.143Z,48.90
2023-01-08T18:49:13.984Z,52.13
2023-01-08T18:51:44.685Z,45.53
2023-01-08T18:54:16.668Z,45.63
2023-01-08T18:56:48.676Z,45.80
2023-01-08T18:59:19.489Z,45.63
2023-01-08T19:01:49.861Z,43.70
2023-01-08T19:04:20.541Z,40.20
2023-01-08T19:06:51.885Z,41.50
2023-01-08T19:09:23.836Z,41.17
2023-01-08T19:11:57.144Z,37.33
2023-01-08T19:14:27.761Z,38.93
2023-01-08T19:16:58.804Z,40.33
2023-01-08T19:19:30.783Z,38.83
2023-01-08T19:22:00.997Z,34.40
2023-01-08T19:24:33.042Z,35.23
2023-01-08T19:27:03.408Z,34.77
2023-01-08T19:29:37.891Z,37.03
2023-01-08T19:32:09.971Z,36.80
2023-01-08T19:34:40.284Z,31.37
2023-01-08T19:37:11.953Z,32.60
2023-01-08T19:39:44.819Z,32.13
2023-01-08T19:42:32.162Z,31.60
2023-01-08T19:45:02.337Z,34.93
2023-01-08T19:47:32.686Z,35.93
2023-01-08T19:50:03.213Z,34.40
2023-01-08T19:52:33.957Z,31.33
2023-01-08T19:55:06.745Z,34.00
2023-01-08T19:57:37.483Z,32.37
2023-01-08T20:00:09.833Z,32.23
2023-01-08T20:02:42.043Z,30.90
2023-01-08T20:05:12.838Z,28.07
2023-01-08T20:07:43.783Z,28.90
2023-01-08T20:10:16.861Z,29.17
2023-01-08T20:12:49.353Z,27.50
2023-01-08T20:15:22.636Z,26.53
2023-01-08T20:17:53.374Z,23.87
2023-01-08T20:20:24.367Z,24.33
2023-01-08T20:22:56.376Z,23.03
2023-01-08T20:25:29.679Z,21.67
2023-01-08T20:28:00.205Z,20.03
2023-01-08T20:30:31.246Z,18.87
2023-01-08T20:33:02.799Z,18.23
2023-01-08T20:35:36.180Z,18.73
2023-01-08T20:38:07.015Z,18.20
2023-01-08T20:40:42.151Z,15.93
2023-01-08T20:43:13.215Z,14.67
2023-01-08T20:45:44.186Z,13.70
2023-01-08T20:48:14.917Z,13.90
2023-01-08T20:50:48.064Z,14.03
2023-01-08T20:53:18.920Z,13.63
2023-01-08T20:55:53.025Z,13.97
2023-01-08T20:58:23.743Z,14.30
2023-01-08T21:00:55.325Z,12.73
2023-01-08T21:03:25.722Z,12.13
2023-01-08T21:05:57.431Z,11.87
2023-01-08T21:08:27.915Z,13.23
2023-01-08T21:11:05.085Z,11.67
2023-01-08T21:13:35.975Z,11.80
2023-01-08T21:16:13.444Z,11.07
2023-01-08T21:18:47.743Z,10.37
2023-01-08T21:21:19.805Z,10.50
2023-01-08T21:23:51.364Z,10.87
2023-01-08T21:26:23.732Z,10.87
2023-01-08T21:28:54.259Z,11.33
2023-01-08T21:31:27.278Z,10.37
2023-01-08T21:33:59.300Z,11.00
2023-01-08T21:36:31.988Z,10.67
2023-01-08T21:39:03.233Z,11.10
2023-01-08T21:41:52.294Z,10.43
2023-01-08T21:44:40.952Z,11.30
2023-01-08T21:47:14.967Z,10.53
2023-01-08T21:49:46.103Z,10.50
2023-01-08T21:52:36.489Z,11.00
2023-01-08T21:55:07.328Z,10.97
2023-01-08T21:57:42.192Z,11.50
2023-01-08T22:00:13.915Z,12.30
2023-01-08T22:02:44.757Z,12.07
2023-01-08T22:05:14.861Z,11.67
2023-01-08T22:07:45.304Z,10.97
2023-01-08T22:10:15.663Z,10.67
2023-01-08T22:12:47.376Z,10.27
2023-01-08T22:15:17.635Z,9.63
2023-01-08T22:17:47.918Z,9.47
2023-01-08T22:20:18.616Z,9.57
2023-01-08T22:22:52.054Z,7.77
2023-01-08T22:25:22.472Z,7.67
2023-01-08T22:27:55.463Z,7.00
2023-01-08T22:30:27.118Z,6.83
2023-01-08T22:32:57.245Z,7.10
2023-01-08T22:35:27.556Z,6.90
2023-01-08T22:37:57.783Z,6.50
2023-01-08T22:40:28.312Z,7.23
2023-01-08T22:43:00.273Z,6.50
2023-01-08T22:45:32.019Z,6.37
2023-01-08T22:48:03.064Z,6.87
2023-01-08T22:50:33.811Z,6.73
2023-01-08T22:53:04.082Z,6.73
2023-01-08T22:55:36.094Z,5.97
2023-01-08T22:58:09.077Z,6.20
2023-01-08T23:00:39.602Z,6.50
2023-01-08T23:03:10.447Z,7.07
2023-01-08T23:05:40.889Z,7.23
2023-01-08T23:08:13.243Z,6.63
2023-01-08T23:10:43.465Z,6.70
2023-01-08T23:13:16.858Z,6.83
2023-01-08T23:15:47.176Z,6.37
2023-01-08T23:18:17.931Z,6.80
2023-01-08T23:20:48.439Z,7.13
2023-01-08T23:23:18.762Z,6.50
2023-01-08T23:25:49.194Z,6.90
2023-01-08T23:28:21.172Z,7.60
2023-01-08T23:30:52.188Z,7.30
2023-01-08T23:33:22.524Z,7.70
2023-01-08T23:35:54.555Z,7.03
2023-01-08T23:38:24.824Z,8.03
2023-01-08T23:40:54.923Z,8.13
2023-01-08T23:43:26.683Z,8.63
2023-01-08T23:45:59.194Z,8.70
2023-01-08T23:48:29.285Z,8.20
2023-01-08T23:50:59.907Z,8.67
2023-01-08T23:53:30.002Z,9.20
2023-01-08T23:56:00.254Z,8.63
2023-01-08T23:58:33.228Z,8.67
